sensor_id;sensor_type;location;lat;lon;timestamp;pressure;altitude;pressure_sealevel;temperature;humidity
12054;BME280;5638;50.860;4.698;2022-12-29T00:00:09;99749.22;;;12.56;nan
12054;BME280;5638;50.860;4.698;2022-12-29T00:02:35;99740.22;;;12.43;nan
12054;BME280;5638;50.860;4.698;2022-12-29T00:05:02;99749.63;;;12.45;nan
12054;BME280;5638;50.860;4.698;2022-12-29T00:07:28;99766.75;;;12.50;nan
12054;BME280;5638;50.860;4.698;2022-12-29T00:09:54;99746.69;;;12.55;nan
12054;BME280;5638;50.860;4.698;2022-12-29T00:12:19;99717.31;;;12.54;nan
12054;BME280;5638;50.860;4.698;2022-12-29T00:14:45;99719.84;;;12.56;nan
12054;BME280;5638;50.860;4.698;2022-12-29T00:17:29;99722.66;;;12.50;nan
12054;BME280;5638;50.860;4.698;2022-12-29T00:19:55;99728.25;;;12.61;nan
12054;BME280;5638;50.860;4.698;2022-12-29T00:22:39;99721.41;;;12.60;nan
12054;BME280;5638;50.860;4.698;2022-12-29T00:25:24;99737.41;;;12.69;nan
12054;BME280;5638;50.860;4.698;2022-12-29T00:28:09;99719.25;;;12.69;nan
12054;BME280;5638;50.860;4.698;2022-12-29T00:30:58;99714.88;;;12.71;nan
12054;BME280;5638;50.860;4.698;2022-12-29T00:33:43;99711.78;;;12.62;nan
12054;BME280;5638;50.860;4.698;2022-12-29T00:36:39;99748.53;;;12.73;nan
12054;BME280;5638;50.860;4.698;2022-12-29T00:39:15;99710.50;;;12.72;nan
12054;BME280;5638;50.860;4.698;2022-12-29T00:42:06;99709.16;;;12.84;nan
12054;BME280;5638;50.860;4.698;2022-12-29T00:44:51;99689.41;;;12.59;nan
12054;BME280;5638;50.860;4.698;2022-12-29T00:47:17;99709.34;;;12.59;nan
12054;BME280;5638;50.860;4.698;2022-12-29T00:49:43;99704.16;;;12.59;nan
12054;BME280;5638;50.860;4.698;2022-12-29T00:52:13;99731.69;;;12.61;nan
12054;BME280;5638;50.860;4.698;2022-12-29T00:54:40;99724.91;;;12.59;nan
12054;BME280;5638;50.860;4.698;2022-12-29T00:57:09;99705.41;;;12.49;nan
12054;BME280;5638;50.860;4.698;2022-12-29T00:59:36;99716.09;;;12.63;nan
12054;BME280;5638;50.860;4.698;2022-12-29T01:02:02;99711.13;;;12.57;nan
12054;BME280;5638;50.860;4.698;2022-12-29T01:04:28;99707.38;;;12.64;nan
12054;BME280;5638;50.860;4.698;2022-12-29T01:06:54;99695.34;;;12.63;nan
12054;BME280;5638;50.860;4.698;2022-12-29T01:09:20;99705.44;;;12.69;nan
12054;BME280;5638;50.860;4.698;2022-12-29T01:12:07;99692.84;;;12.60;nan
12054;BME280;5638;50.860;4.698;2022-12-29T01:14:34;99697.00;;;12.64;nan
12054;BME280;5638;50.860;4.698;2022-12-29T01:17:00;99744.16;;;12.74;nan
12054;BME280;5638;50.860;4.698;2022-12-29T01:19:26;99720.09;;;12.70;nan
12054;BME280;5638;50.860;4.698;2022-12-29T01:21:52;99697.25;;;12.58;nan
12054;BME280;5638;50.860;4.698;2022-12-29T01:24:21;99728.56;;;12.53;nan
12054;BME280;5638;50.860;4.698;2022-12-29T01:26:47;99715.91;;;12.67;nan
12054;BME280;5638;50.860;4.698;2022-12-29T01:29:14;99719.72;;;12.59;nan
12054;BME280;5638;50.860;4.698;2022-12-29T01:31:40;99740.47;;;12.59;nan
12054;BME280;5638;50.860;4.698;2022-12-29T01:34:06;99713.91;;;12.52;nan
12054;BME280;5638;50.860;4.698;2022-12-29T01:36:33;99717.47;;;12.50;nan
12054;BME280;5638;50.860;4.698;2022-12-29T01:38:59;99732.25;;;12.48;nan
12054;BME280;5638;50.860;4.698;2022-12-29T01:41:25;99717.34;;;12.53;nan
12054;BME280;5638;50.860;4.698;2022-12-29T01:43:57;99744.44;;;12.45;nan
12054;BME280;5638;50.860;4.698;2022-12-29T01:46:41;99730.44;;;12.28;nan
12054;BME280;5638;50.860;4.698;2022-12-29T01:57:01;99732.97;;;12.07;nan
12054;BME280;5638;50.860;4.698;2022-12-29T01:59:36;99742.22;;;12.14;nan
12054;BME280;5638;50.860;4.698;2022-12-29T02:02:05;99718.25;;;12.08;nan
12054;BME280;5638;50.860;4.698;2022-12-29T02:04:33;99716.88;;;11.99;nan
12054;BME280;5638;50.860;4.698;2022-12-29T02:07:06;99705.56;;;12.02;nan
12054;BME280;5638;50.860;4.698;2022-12-29T02:09:34;99694.16;;;11.84;nan
12054;BME280;5638;50.860;4.698;2022-12-29T02:12:01;99710.19;;;11.93;nan
12054;BME280;5638;50.860;4.698;2022-12-29T02:14:28;99708.50;;;11.92;nan
12054;BME280;5638;50.860;4.698;2022-12-29T02:20:11;99707.13;;;12.06;nan
12054;BME280;5638;50.860;4.698;2022-12-29T02:40:31;99673.22;;;12.32;nan
12054;BME280;5638;50.860;4.698;2022-12-29T02:46:10;99683.00;;;12.26;nan
12054;BME280;5638;50.860;4.698;2022-12-29T02:48:46;99695.47;;;12.16;nan
12054;BME280;5638;50.860;4.698;2022-12-29T02:51:27;99694.53;;;12.18;nan
12054;BME280;5638;50.860;4.698;2022-12-29T02:53:57;99674.72;;;12.16;nan
12054;BME280;5638;50.860;4.698;2022-12-29T02:56:42;99662.78;;;12.12;nan
12054;BME280;5638;50.860;4.698;2022-12-29T02:59:09;99661.06;;;12.12;nan
12054;BME280;5638;50.860;4.698;2022-12-29T03:08:59;99674.06;;;12.33;nan
12054;BME280;5638;50.860;4.698;2022-12-29T03:11:45;99672.56;;;12.27;nan
12054;BME280;5638;50.860;4.698;2022-12-29T03:17:52;99684.44;;;12.11;nan
12054;BME280;5638;50.860;4.698;2022-12-29T03:20:43;99678.34;;;11.90;nan
12054;BME280;5638;50.860;4.698;2022-12-29T03:23:13;99684.81;;;11.78;nan
12054;BME280;5638;50.860;4.698;2022-12-29T03:25:46;99679.81;;;11.73;nan
12054;BME280;5638;50.860;4.698;2022-12-29T03:28:28;99705.69;;;11.75;nan
12054;BME280;5638;50.860;4.698;2022-12-29T03:30:58;99664.50;;;11.67;nan
12054;BME280;5638;50.860;4.698;2022-12-29T03:33:28;99692.56;;;11.56;nan
12054;BME280;5638;50.860;4.698;2022-12-29T03:36:03;99698.91;;;11.47;nan
12054;BME280;5638;50.860;4.698;2022-12-29T03:38:44;99715.13;;;11.53;nan
12054;BME280;5638;50.860;4.698;2022-12-29T03:41:18;99713.22;;;11.58;nan
12054;BME280;5638;50.860;4.698;2022-12-29T03:43:46;99704.91;;;11.50;nan
12054;BME280;5638;50.860;4.698;2022-12-29T03:46:12;99708.25;;;11.52;nan
12054;BME280;5638;50.860;4.698;2022-12-29T03:48:38;99696.13;;;11.54;nan
12054;BME280;5638;50.860;4.698;2022-12-29T03:51:04;99699.66;;;11.75;nan
12054;BME280;5638;50.860;4.698;2022-12-29T03:53:30;99702.19;;;11.76;nan
12054;BME280;5638;50.860;4.698;2022-12-29T03:55:56;99693.59;;;11.74;nan
12054;BME280;5638;50.860;4.698;2022-12-29T03:58:21;99701.19;;;11.79;nan
12054;BME280;5638;50.860;4.698;2022-12-29T04:00:47;99699.25;;;11.85;nan
12054;BME280;5638;50.860;4.698;2022-12-29T04:03:13;99693.38;;;11.80;nan
12054;BME280;5638;50.860;4.698;2022-12-29T04:05:39;99732.38;;;11.77;nan
12054;BME280;5638;50.860;4.698;2022-12-29T04:08:05;99727.19;;;11.77;nan
12054;BME280;5638;50.860;4.698;2022-12-29T04:10:31;99721.09;;;11.78;nan
12054;BME280;5638;50.860;4.698;2022-12-29T04:12:56;99729.66;;;11.80;nan
12054;BME280;5638;50.860;4.698;2022-12-29T04:15:22;99732.84;;;11.88;nan
12054;BME280;5638;50.860;4.698;2022-12-29T04:17:49;99711.03;;;11.94;nan
12054;BME280;5638;50.860;4.698;2022-12-29T04:20:15;99704.38;;;11.87;nan
12054;BME280;5638;50.860;4.698;2022-12-29T04:23:04;99732.03;;;11.86;nan
12054;BME280;5638;50.860;4.698;2022-12-29T04:25:32;99718.88;;;11.92;nan
12054;BME280;5638;50.860;4.698;2022-12-29T04:27:58;99714.75;;;11.87;nan
12054;BME280;5638;50.860;4.698;2022-12-29T04:30:24;99728.09;;;11.76;nan
12054;BME280;5638;50.860;4.698;2022-12-29T04:32:50;99721.81;;;11.83;nan
12054;BME280;5638;50.860;4.698;2022-12-29T04:35:16;99716.34;;;11.66;nan
12054;BME280;5638;50.860;4.698;2022-12-29T04:37:42;99716.16;;;11.72;nan
12054;BME280;5638;50.860;4.698;2022-12-29T04:40:09;99727.06;;;11.57;nan
12054;BME280;5638;50.860;4.698;2022-12-29T04:42:35;99730.78;;;11.73;nan
12054;BME280;5638;50.860;4.698;2022-12-29T04:45:01;99708.75;;;11.61;nan
12054;BME280;5638;50.860;4.698;2022-12-29T04:47:27;99729.84;;;11.76;nan
12054;BME280;5638;50.860;4.698;2022-12-29T04:49:53;99726.28;;;11.78;nan
12054;BME280;5638;50.860;4.698;2022-12-29T04:52:18;99736.78;;;11.75;nan
12054;BME280;5638;50.860;4.698;2022-12-29T04:54:44;99692.16;;;11.43;nan
12054;BME280;5638;50.860;4.698;2022-12-29T04:57:10;99720.09;;;11.59;nan
12054;BME280;5638;50.860;4.698;2022-12-29T04:59:36;99736.91;;;11.95;nan
12054;BME280;5638;50.860;4.698;2022-12-29T05:02:02;99740.72;;;11.85;nan
12054;BME280;5638;50.860;4.698;2022-12-29T05:04:28;99749.16;;;11.90;nan
12054;BME280;5638;50.860;4.698;2022-12-29T05:06:54;99748.41;;;11.88;nan
12054;BME280;5638;50.860;4.698;2022-12-29T05:09:20;99746.56;;;11.90;nan
12054;BME280;5638;50.860;4.698;2022-12-29T05:11:45;99732.84;;;11.88;nan
12054;BME280;5638;50.860;4.698;2022-12-29T05:14:11;99742.75;;;12.01;nan
12054;BME280;5638;50.860;4.698;2022-12-29T05:16:37;99749.25;;;11.89;nan
12054;BME280;5638;50.860;4.698;2022-12-29T05:19:03;99752.13;;;12.03;nan
12054;BME280;5638;50.860;4.698;2022-12-29T05:21:29;99743.69;;;11.98;nan
12054;BME280;5638;50.860;4.698;2022-12-29T05:23:54;99770.97;;;12.08;nan
12054;BME280;5638;50.860;4.698;2022-12-29T05:26:20;99738.13;;;12.09;nan
12054;BME280;5638;50.860;4.698;2022-12-29T05:28:46;99743.72;;;12.20;nan
12054;BME280;5638;50.860;4.698;2022-12-29T05:31:12;99743.34;;;12.07;nan
12054;BME280;5638;50.860;4.698;2022-12-29T05:33:38;99728.88;;;12.02;nan
12054;BME280;5638;50.860;4.698;2022-12-29T05:36:06;99761.19;;;12.15;nan
12054;BME280;5638;50.860;4.698;2022-12-29T05:38:32;99756.56;;;12.23;nan
12054;BME280;5638;50.860;4.698;2022-12-29T05:40:58;99751.75;;;12.36;nan
12054;BME280;5638;50.860;4.698;2022-12-29T05:43:24;99749.25;;;12.11;nan
12054;BME280;5638;50.860;4.698;2022-12-29T05:45:50;99735.19;;;11.94;nan
12054;BME280;5638;50.860;4.698;2022-12-29T05:48:16;99752.66;;;12.13;nan
12054;BME280;5638;50.860;4.698;2022-12-29T05:50:42;99752.38;;;11.97;nan
12054;BME280;5638;50.860;4.698;2022-12-29T05:53:08;99759.97;;;12.02;nan
12054;BME280;5638;50.860;4.698;2022-12-29T05:55:34;99765.16;;;12.02;nan
12054;BME280;5638;50.860;4.698;2022-12-29T05:58:00;99757.41;;;12.02;nan
12054;BME280;5638;50.860;4.698;2022-12-29T06:00:26;99750.75;;;11.94;nan
12054;BME280;5638;50.860;4.698;2022-12-29T06:02:52;99772.00;;;12.04;nan
12054;BME280;5638;50.860;4.698;2022-12-29T06:05:17;99780.38;;;12.11;nan
12054;BME280;5638;50.860;4.698;2022-12-29T06:07:43;99757.09;;;12.09;nan
12054;BME280;5638;50.860;4.698;2022-12-29T06:10:11;99792.66;;;12.06;nan
12054;BME280;5638;50.860;4.698;2022-12-29T06:12:37;99777.22;;;12.03;nan
12054;BME280;5638;50.860;4.698;2022-12-29T06:15:03;99784.09;;;12.04;nan
12054;BME280;5638;50.860;4.698;2022-12-29T06:17:29;99780.72;;;12.02;nan
12054;BME280;5638;50.860;4.698;2022-12-29T06:19:55;99754.94;;;11.73;nan
12054;BME280;5638;50.860;4.698;2022-12-29T06:22:20;99794.94;;;11.91;nan
12054;BME280;5638;50.860;4.698;2022-12-29T06:24:46;99795.19;;;12.07;nan
12054;BME280;5638;50.860;4.698;2022-12-29T06:27:12;99789.91;;;12.10;nan
12054;BME280;5638;50.860;4.698;2022-12-29T06:29:39;99793.03;;;11.96;nan
12054;BME280;5638;50.860;4.698;2022-12-29T06:32:06;99810.56;;;12.12;nan
12054;BME280;5638;50.860;4.698;2022-12-29T06:34:32;99816.63;;;12.12;nan
12054;BME280;5638;50.860;4.698;2022-12-29T06:36:58;99819.81;;;12.19;nan
12054;BME280;5638;50.860;4.698;2022-12-29T06:39:24;99817.88;;;12.24;nan
12054;BME280;5638;50.860;4.698;2022-12-29T06:41:53;99815.47;;;12.19;nan
12054;BME280;5638;50.860;4.698;2022-12-29T06:44:22;99804.88;;;12.26;nan
12054;BME280;5638;50.860;4.698;2022-12-29T06:46:49;99789.31;;;12.26;nan
12054;BME280;5638;50.860;4.698;2022-12-29T06:49:16;99820.94;;;12.12;nan
12054;BME280;5638;50.860;4.698;2022-12-29T06:51:42;99831.19;;;12.15;nan
12054;BME280;5638;50.860;4.698;2022-12-29T06:54:08;99824.50;;;12.09;nan
12054;BME280;5638;50.860;4.698;2022-12-29T06:56:34;99824.22;;;12.17;nan
12054;BME280;5638;50.860;4.698;2022-12-29T06:58:59;99828.22;;;12.02;nan
12054;BME280;5638;50.860;4.698;2022-12-29T07:01:26;99840.66;;;12.16;nan
12054;BME280;5638;50.860;4.698;2022-12-29T07:03:52;99818.91;;;12.20;nan
12054;BME280;5638;50.860;4.698;2022-12-29T07:06:19;99822.34;;;12.20;nan
12054;BME280;5638;50.860;4.698;2022-12-29T07:08:44;99829.53;;;12.14;nan
12054;BME280;5638;50.860;4.698;2022-12-29T07:11:10;99837.66;;;12.05;nan
12054;BME280;5638;50.860;4.698;2022-12-29T07:13:36;99859.50;;;11.98;nan
12054;BME280;5638;50.860;4.698;2022-12-29T07:16:07;99855.72;;;12.06;nan
12054;BME280;5638;50.860;4.698;2022-12-29T07:18:34;99852.13;;;12.10;nan
12054;BME280;5638;50.860;4.698;2022-12-29T07:21:00;99876.97;;;12.16;nan
12054;BME280;5638;50.860;4.698;2022-12-29T07:23:26;99859.63;;;12.18;nan
12054;BME280;5638;50.860;4.698;2022-12-29T07:26:08;99889.94;;;12.16;nan
12054;BME280;5638;50.860;4.698;2022-12-29T07:28:36;99874.00;;;12.27;nan
12054;BME280;5638;50.860;4.698;2022-12-29T07:31:04;99858.38;;;12.05;nan
12054;BME280;5638;50.860;4.698;2022-12-29T07:33:31;99873.94;;;12.05;nan
12054;BME280;5638;50.860;4.698;2022-12-29T07:35:58;99885.41;;;11.98;nan
12054;BME280;5638;50.860;4.698;2022-12-29T07:38:24;99872.34;;;12.01;nan
12054;BME280;5638;50.860;4.698;2022-12-29T07:40:49;99867.84;;;12.06;nan
12054;BME280;5638;50.860;4.698;2022-12-29T07:43:15;99856.53;;;12.08;nan
12054;BME280;5638;50.860;4.698;2022-12-29T07:45:41;99867.09;;;12.02;nan
12054;BME280;5638;50.860;4.698;2022-12-29T07:48:07;99869.75;;;12.01;nan
12054;BME280;5638;50.860;4.698;2022-12-29T07:50:37;99878.16;;;11.82;nan
12054;BME280;5638;50.860;4.698;2022-12-29T07:53:03;99873.63;;;11.89;nan
12054;BME280;5638;50.860;4.698;2022-12-29T07:55:29;99876.34;;;12.09;nan
12054;BME280;5638;50.860;4.698;2022-12-29T07:57:56;99863.50;;;12.06;nan
12054;BME280;5638;50.860;4.698;2022-12-29T08:00:22;99867.59;;;12.12;nan
12054;BME280;5638;50.860;4.698;2022-12-29T08:02:49;99871.91;;;12.13;nan
12054;BME280;5638;50.860;4.698;2022-12-29T08:05:15;99882.16;;;11.92;nan
12054;BME280;5638;50.860;4.698;2022-12-29T08:07:45;99873.53;;;11.92;nan
12054;BME280;5638;50.860;4.698;2022-12-29T08:10:12;99878.47;;;11.98;nan
12054;BME280;5638;50.860;4.698;2022-12-29T08:12:39;99892.53;;;12.16;nan
12054;BME280;5638;50.860;4.698;2022-12-29T08:15:08;99881.59;;;12.08;nan
12054;BME280;5638;50.860;4.698;2022-12-29T08:17:34;99889.50;;;12.05;nan
12054;BME280;5638;50.860;4.698;2022-12-29T08:20:00;99888.50;;;11.82;nan
12054;BME280;5638;50.860;4.698;2022-12-29T08:22:26;99888.94;;;11.95;nan
12054;BME280;5638;50.860;4.698;2022-12-29T08:24:52;99888.75;;;11.76;nan
12054;BME280;5638;50.860;4.698;2022-12-29T08:27:18;99895.13;;;11.66;nan
12054;BME280;5638;50.860;4.698;2022-12-29T08:29:44;99869.38;;;11.61;nan
12054;BME280;5638;50.860;4.698;2022-12-29T08:32:11;99891.75;;;11.64;nan
12054;BME280;5638;50.860;4.698;2022-12-29T08:34:37;99901.78;;;11.73;nan
12054;BME280;5638;50.860;4.698;2022-12-29T08:37:03;99926.22;;;11.66;nan
12054;BME280;5638;50.860;4.698;2022-12-29T08:39:29;99923.38;;;11.99;nan
12054;BME280;5638;50.860;4.698;2022-12-29T08:41:55;99915.09;;;12.14;nan
12054;BME280;5638;50.860;4.698;2022-12-29T08:44:21;99926.19;;;12.17;nan
12054;BME280;5638;50.860;4.698;2022-12-29T08:46:47;99924.53;;;11.91;nan
12054;BME280;5638;50.860;4.698;2022-12-29T08:49:13;99930.84;;;11.83;nan
12054;BME280;5638;50.860;4.698;2022-12-29T08:51:39;99914.28;;;11.87;nan
12054;BME280;5638;50.860;4.698;2022-12-29T08:54:05;99919.44;;;11.88;nan
12054;BME280;5638;50.860;4.698;2022-12-29T08:56:31;99934.16;;;11.88;nan
12054;BME280;5638;50.860;4.698;2022-12-29T08:58:57;99918.25;;;11.72;nan
12054;BME280;5638;50.860;4.698;2022-12-29T09:01:23;99930.38;;;11.70;nan
12054;BME280;5638;50.860;4.698;2022-12-29T09:03:49;99947.84;;;11.65;nan
12054;BME280;5638;50.860;4.698;2022-12-29T09:06:17;99930.28;;;11.73;nan
12054;BME280;5638;50.860;4.698;2022-12-29T09:08:44;99918.75;;;11.57;nan
12054;BME280;5638;50.860;4.698;2022-12-29T09:11:21;99934.34;;;11.55;nan
12054;BME280;5638;50.860;4.698;2022-12-29T09:13:48;99936.69;;;11.63;nan
12054;BME280;5638;50.860;4.698;2022-12-29T09:16:15;99932.38;;;11.62;nan
12054;BME280;5638;50.860;4.698;2022-12-29T09:18:41;99949.09;;;11.53;nan
12054;BME280;5638;50.860;4.698;2022-12-29T09:21:09;99943.88;;;11.55;nan
12054;BME280;5638;50.860;4.698;2022-12-29T09:23:36;99955.91;;;11.56;nan
12054;BME280;5638;50.860;4.698;2022-12-29T09:26:03;99942.81;;;11.60;nan
12054;BME280;5638;50.860;4.698;2022-12-29T09:28:29;99958.41;;;11.85;nan
12054;BME280;5638;50.860;4.698;2022-12-29T09:30:57;99960.75;;;11.93;nan
12054;BME280;5638;50.860;4.698;2022-12-29T09:33:24;99963.13;;;11.99;nan
12054;BME280;5638;50.860;4.698;2022-12-29T09:35:54;99974.50;;;11.95;nan
12054;BME280;5638;50.860;4.698;2022-12-29T09:38:21;99989.69;;;12.06;nan
12054;BME280;5638;50.860;4.698;2022-12-29T09:40:59;99985.16;;;12.12;nan
12054;BME280;5638;50.860;4.698;2022-12-29T09:46:50;99954.47;;;12.24;nan
12054;BME280;5638;50.860;4.698;2022-12-29T09:49:30;100016.50;;;12.55;nan
12054;BME280;5638;50.860;4.698;2022-12-29T09:52:15;100015.91;;;13.17;nan
12054;BME280;5638;50.860;4.698;2022-12-29T09:54:54;100054.59;;;13.01;nan
12054;BME280;5638;50.860;4.698;2022-12-29T09:57:32;100027.88;;;13.21;nan
12054;BME280;5638;50.860;4.698;2022-12-29T10:00:15;100023.97;;;13.33;nan
12054;BME280;5638;50.860;4.698;2022-12-29T10:05:50;100032.97;;;12.77;nan
12054;BME280;5638;50.860;4.698;2022-12-29T10:15:12;100045.63;;;12.63;nan
12054;BME280;5638;50.860;4.698;2022-12-29T10:17:49;100048.50;;;12.54;nan
12054;BME280;5638;50.860;4.698;2022-12-29T10:23:45;100025.56;;;12.43;nan
12054;BME280;5638;50.860;4.698;2022-12-29T10:26:22;100058.47;;;12.41;nan
12054;BME280;5638;50.860;4.698;2022-12-29T10:34:27;100039.59;;;12.37;nan
12054;BME280;5638;50.860;4.698;2022-12-29T10:39:53;100099.63;;;12.52;nan
12054;BME280;5638;50.860;4.698;2022-12-29T10:42:41;100054.44;;;12.57;nan
12054;BME280;5638;50.860;4.698;2022-12-29T10:45:14;100059.03;;;12.51;nan
12054;BME280;5638;50.860;4.698;2022-12-29T10:50:37;100072.78;;;12.53;nan
12054;BME280;5638;50.860;4.698;2022-12-29T10:53:19;100082.22;;;12.55;nan
12054;BME280;5638;50.860;4.698;2022-12-29T10:55:47;100106.94;;;12.65;nan
12054;BME280;5638;50.860;4.698;2022-12-29T10:58:15;100072.69;;;12.56;nan
12054;BME280;5638;50.860;4.698;2022-12-29T11:00:43;100091.75;;;12.55;nan
12054;BME280;5638;50.860;4.698;2022-12-29T11:06:12;100098.50;;;12.34;nan
12054;BME280;5638;50.860;4.698;2022-12-29T11:09:02;100087.22;;;12.35;nan
12054;BME280;5638;50.860;4.698;2022-12-29T11:11:36;100105.78;;;12.23;nan
12054;BME280;5638;50.860;4.698;2022-12-29T11:14:19;100088.13;;;12.34;nan
12054;BME280;5638;50.860;4.698;2022-12-29T11:16:59;100116.28;;;12.44;nan
12054;BME280;5638;50.860;4.698;2022-12-29T11:19:29;100105.31;;;12.36;nan
12054;BME280;5638;50.860;4.698;2022-12-29T11:22:19;100126.38;;;12.27;nan
12054;BME280;5638;50.860;4.698;2022-12-29T11:24:49;100127.88;;;12.08;nan
12054;BME280;5638;50.860;4.698;2022-12-29T11:27:21;100113.66;;;12.19;nan
12054;BME280;5638;50.860;4.698;2022-12-29T11:29:50;100128.22;;;12.24;nan
12054;BME280;5638;50.860;4.698;2022-12-29T11:32:28;100136.84;;;12.24;nan
12054;BME280;5638;50.860;4.698;2022-12-29T11:34:58;100129.41;;;12.40;nan
12054;BME280;5638;50.860;4.698;2022-12-29T11:37:36;100139.50;;;12.23;nan
12054;BME280;5638;50.860;4.698;2022-12-29T11:40:16;100126.88;;;12.12;nan
12054;BME280;5638;50.860;4.698;2022-12-29T11:45:20;100134.81;;;12.07;nan
12054;BME280;5638;50.860;4.698;2022-12-29T11:47:55;100133.66;;;12.16;nan
12054;BME280;5638;50.860;4.698;2022-12-29T11:50:31;100126.84;;;12.13;nan
12054;BME280;5638;50.860;4.698;2022-12-29T11:53:03;100153.38;;;12.21;nan
12054;BME280;5638;50.860;4.698;2022-12-29T11:55:31;100148.63;;;12.08;nan
12054;BME280;5638;50.860;4.698;2022-12-29T11:58:02;100146.34;;;12.25;nan
12054;BME280;5638;50.860;4.698;2022-12-29T12:00:34;100155.22;;;12.18;nan
12054;BME280;5638;50.860;4.698;2022-12-29T12:03:15;100122.34;;;11.92;nan
12054;BME280;5638;50.860;4.698;2022-12-29T12:05:54;100167.13;;;12.24;nan
12054;BME280;5638;50.860;4.698;2022-12-29T12:08:54;100161.63;;;12.06;nan
12054;BME280;5638;50.860;4.698;2022-12-29T12:11:34;100157.13;;;12.13;nan
12054;BME280;5638;50.860;4.698;2022-12-29T12:14:35;100150.13;;;12.15;nan
12054;BME280;5638;50.860;4.698;2022-12-29T12:17:17;100141.84;;;12.30;nan
12054;BME280;5638;50.860;4.698;2022-12-29T12:19:56;100163.50;;;12.29;nan
12054;BME280;5638;50.860;4.698;2022-12-29T12:22:38;100156.91;;;12.19;nan
12054;BME280;5638;50.860;4.698;2022-12-29T12:25:43;100136.75;;;12.27;nan
12054;BME280;5638;50.860;4.698;2022-12-29T12:28:21;100150.38;;;12.34;nan
12054;BME280;5638;50.860;4.698;2022-12-29T12:30:57;100139.41;;;12.26;nan
12054;BME280;5638;50.860;4.698;2022-12-29T12:33:31;100157.13;;;12.13;nan
12054;BME280;5638;50.860;4.698;2022-12-29T12:51:17;100148.13;;;11.96;nan
12054;BME280;5638;50.860;4.698;2022-12-29T12:57:05;100148.00;;;12.00;nan
12054;BME280;5638;50.860;4.698;2022-12-29T13:00:07;100169.19;;;12.14;nan
12054;BME280;5638;50.860;4.698;2022-12-29T13:03:10;100156.84;;;12.20;nan
12054;BME280;5638;50.860;4.698;2022-12-29T13:08:42;100160.41;;;12.18;nan
12054;BME280;5638;50.860;4.698;2022-12-29T13:20:54;100153.00;;;12.06;nan
12054;BME280;5638;50.860;4.698;2022-12-29T13:26:33;100175.66;;;12.27;nan
12054;BME280;5638;50.860;4.698;2022-12-29T13:29:27;100189.16;;;12.37;nan
12054;BME280;5638;50.860;4.698;2022-12-29T13:38:00;100210.34;;;12.51;nan
12054;BME280;5638;50.860;4.698;2022-12-29T13:40:38;100201.22;;;12.39;nan
12054;BME280;5638;50.860;4.698;2022-12-29T13:43:05;100192.44;;;12.43;nan
12054;BME280;5638;50.860;4.698;2022-12-29T13:45:34;100197.22;;;12.29;nan
12054;BME280;5638;50.860;4.698;2022-12-29T13:48:17;100197.16;;;12.31;nan
12054;BME280;5638;50.860;4.698;2022-12-29T13:50:52;100196.72;;;12.18;nan
12054;BME280;5638;50.860;4.698;2022-12-29T13:53:19;100190.31;;;12.02;nan
12054;BME280;5638;50.860;4.698;2022-12-29T13:56:13;100203.50;;;11.94;nan
12054;BME280;5638;50.860;4.698;2022-12-29T13:59:05;100202.66;;;11.93;nan
12054;BME280;5638;50.860;4.698;2022-12-29T14:04:34;100189.78;;;12.18;nan
12054;BME280;5638;50.860;4.698;2022-12-29T14:07:13;100202.31;;;12.59;nan
12054;BME280;5638;50.860;4.698;2022-12-29T14:09:54;100194.56;;;12.57;nan
12054;BME280;5638;50.860;4.698;2022-12-29T14:12:43;100186.38;;;12.69;nan
12054;BME280;5638;50.860;4.698;2022-12-29T14:17:35;100184.44;;;12.50;nan
12054;BME280;5638;50.860;4.698;2022-12-29T14:20:04;100189.50;;;12.54;nan
12054;BME280;5638;50.860;4.698;2022-12-29T14:22:33;100176.25;;;12.09;nan
12054;BME280;5638;50.860;4.698;2022-12-29T14:25:00;100198.75;;;12.08;nan
12054;BME280;5638;50.860;4.698;2022-12-29T14:29:54;100180.50;;;11.83;nan
12054;BME280;5638;50.860;4.698;2022-12-29T14:35:00;100196.13;;;11.80;nan
12054;BME280;5638;50.860;4.698;2022-12-29T14:37:47;100188.63;;;11.69;nan
12054;BME280;5638;50.860;4.698;2022-12-29T14:40:23;100190.38;;;11.69;nan
12054;BME280;5638;50.860;4.698;2022-12-29T14:42:55;100194.66;;;11.70;nan
12054;BME280;5638;50.860;4.698;2022-12-29T14:45:31;100184.50;;;11.64;nan
12054;BME280;5638;50.860;4.698;2022-12-29T14:48:36;100189.75;;;11.61;nan
12054;BME280;5638;50.860;4.698;2022-12-29T14:51:27;100181.81;;;11.67;nan
12054;BME280;5638;50.860;4.698;2022-12-29T14:53:54;100203.81;;;11.82;nan
12054;BME280;5638;50.860;4.698;2022-12-29T14:56:27;100188.69;;;11.68;nan
12054;BME280;5638;50.860;4.698;2022-12-29T14:58:57;100203.06;;;11.78;nan
12054;BME280;5638;50.860;4.698;2022-12-29T15:01:42;100210.22;;;11.70;nan
12054;BME280;5638;50.860;4.698;2022-12-29T15:04:30;100229.34;;;11.66;nan
12054;BME280;5638;50.860;4.698;2022-12-29T15:06:56;100204.66;;;11.82;nan
12054;BME280;5638;50.860;4.698;2022-12-29T15:09:45;100222.72;;;11.87;nan
12054;BME280;5638;50.860;4.698;2022-12-29T15:12:48;100230.94;;;11.70;nan
12054;BME280;5638;50.860;4.698;2022-12-29T15:15:23;100243.66;;;11.79;nan
12054;BME280;5638;50.860;4.698;2022-12-29T15:17:50;100241.22;;;11.73;nan
12054;BME280;5638;50.860;4.698;2022-12-29T15:20:29;100241.06;;;11.79;nan
12054;BME280;5638;50.860;4.698;2022-12-29T15:23:03;100248.63;;;11.87;nan
12054;BME280;5638;50.860;4.698;2022-12-29T15:25:31;100231.91;;;11.66;nan
12054;BME280;5638;50.860;4.698;2022-12-29T15:28:04;100256.16;;;11.65;nan
12054;BME280;5638;50.860;4.698;2022-12-29T15:30:33;100265.09;;;11.55;nan
12054;BME280;5638;50.860;4.698;2022-12-29T15:32:59;100293.41;;;11.61;nan
12054;BME280;5638;50.860;4.698;2022-12-29T15:35:36;100290.72;;;11.64;nan
12054;BME280;5638;50.860;4.698;2022-12-29T15:38:24;100291.75;;;11.58;nan
12054;BME280;5638;50.860;4.698;2022-12-29T15:40:58;100290.22;;;11.18;nan
12054;BME280;5638;50.860;4.698;2022-12-29T15:44:16;100289.63;;;10.73;nan
12054;BME280;5638;50.860;4.698;2022-12-29T15:46:44;100289.63;;;10.73;nan
12054;BME280;5638;50.860;4.698;2022-12-29T15:49:15;100276.34;;;10.51;nan
12054;BME280;5638;50.860;4.698;2022-12-29T15:51:42;100283.44;;;10.43;nan
12054;BME280;5638;50.860;4.698;2022-12-29T15:54:21;100273.16;;;10.40;nan
12054;BME280;5638;50.860;4.698;2022-12-29T15:56:48;100300.53;;;10.48;nan
12054;BME280;5638;50.860;4.698;2022-12-29T15:59:33;100303.91;;;10.52;nan